sensor_id;sensor_type;location;lat;lon;timestamp;P1;durP1;ratioP1;P2;durP2;ratioP2
36257;SDS011;22294;52.044;4.582;2022-07-29T00:01:27;3.28;;;1.40;;
36257;SDS011;22294;52.044;4.582;2022-07-29T00:03:52;4.82;;;1.33;;
36257;SDS011;22294;52.044;4.582;2022-07-29T00:06:17;1.63;;;1.33;;
36257;SDS011;22294;52.044;4.582;2022-07-29T00:08:43;3.08;;;1.33;;
36257;SDS011;22294;52.044;4.582;2022-07-29T00:11:08;2.78;;;1.33;;
36257;SDS011;22294;52.044;4.582;2022-07-29T00:13:33;2.35;;;1.40;;
36257;SDS011;22294;52.044;4.582;2022-07-29T00:15:59;2.00;;;1.02;;
36257;SDS011;22294;52.044;4.582;2022-07-29T00:18:24;5.80;;;1.30;;
36257;SDS011;22294;52.044;4.582;2022-07-29T00:20:49;2.63;;;1.23;;
36257;SDS011;22294;52.044;4.582;2022-07-29T00:23:15;3.17;;;1.42;;
36257;SDS011;22294;52.044;4.582;2022-07-29T00:25:40;4.00;;;1.17;;
36257;SDS011;22294;52.044;4.582;2022-07-29T00:28:07;2.55;;;1.05;;
36257;SDS011;22294;52.044;4.582;2022-07-29T00:30:32;4.00;;;1.55;;
36257;SDS011;22294;52.044;4.582;2022-07-29T00:32:57;2.47;;;1.20;;
36257;SDS011;22294;52.044;4.582;2022-07-29T00:35:23;2.00;;;1.42;;
36257;SDS011;22294;52.044;4.582;2022-07-29T00:38:07;2.67;;;1.50;;
36257;SDS011;22294;52.044;4.582;2022-07-29T00:40:32;4.85;;;1.50;;
36257;SDS011;22294;52.044;4.582;2022-07-29T00:42:59;4.75;;;1.38;;
36257;SDS011;22294;52.044;4.582;2022-07-29T00:45:24;6.43;;;1.60;;
36257;SDS011;22294;52.044;4.582;2022-07-29T00:47:51;3.00;;;1.27;;
36257;SDS011;22294;52.044;4.582;2022-07-29T00:50:16;4.53;;;1.55;;
36257;SDS011;22294;52.044;4.582;2022-07-29T00:52:42;2.75;;;1.33;;
36257;SDS011;22294;52.044;4.582;2022-07-29T00:55:09;4.10;;;1.38;;
36257;SDS011;22294;52.044;4.582;2022-07-29T00:57:37;2.65;;;1.30;;
36257;SDS011;22294;52.044;4.582;2022-07-29T01:00:03;5.22;;;1.25;;
36257;SDS011;22294;52.044;4.582;2022-07-29T01:02:30;3.63;;;1.40;;
36257;SDS011;22294;52.044;4.582;2022-07-29T01:04:55;5.63;;;1.88;;
36257;SDS011;22294;52.044;4.582;2022-07-29T01:07:22;4.45;;;1.65;;
36257;SDS011;22294;52.044;4.582;2022-07-29T01:09:49;4.82;;;1.40;;
36257;SDS011;22294;52.044;4.582;2022-07-29T01:12:19;3.25;;;1.48;;
36257;SDS011;22294;52.044;4.582;2022-07-29T01:14:47;5.18;;;1.60;;
36257;SDS011;22294;52.044;4.582;2022-07-29T01:17:14;3.38;;;1.58;;
36257;SDS011;22294;52.044;4.582;2022-07-29T01:19:51;5.72;;;1.58;;
36257;SDS011;22294;52.044;4.582;2022-07-29T01:22:31;4.47;;;1.60;;
36257;SDS011;22294;52.044;4.582;2022-07-29T01:30:24;5.35;;;1.80;;
36257;SDS011;22294;52.044;4.582;2022-07-29T01:32:53;3.78;;;1.80;;
36257;SDS011;22294;52.044;4.582;2022-07-29T01:35:25;2.47;;;1.42;;
36257;SDS011;22294;52.044;4.582;2022-07-29T01:43:42;3.67;;;1.90;;
36257;SDS011;22294;52.044;4.582;2022-07-29T01:46:14;3.85;;;1.65;;
36257;SDS011;22294;52.044;4.582;2022-07-29T01:48:47;3.20;;;1.75;;
36257;SDS011;22294;52.044;4.582;2022-07-29T01:51:19;3.97;;;1.67;;
36257;SDS011;22294;52.044;4.582;2022-07-29T01:53:57;5.25;;;1.50;;
36257;SDS011;22294;52.044;4.582;2022-07-29T01:56:27;3.78;;;1.60;;
36257;SDS011;22294;52.044;4.582;2022-07-29T01:58:57;1.73;;;1.60;;
36257;SDS011;22294;52.044;4.582;2022-07-29T02:01:23;3.70;;;1.30;;
36257;SDS011;22294;52.044;4.582;2022-07-29T02:03:51;3.13;;;1.60;;
36257;SDS011;22294;52.044;4.582;2022-07-29T02:06:19;2.83;;;1.50;;
36257;SDS011;22294;52.044;4.582;2022-07-29T02:08:47;3.97;;;1.52;;
36257;SDS011;22294;52.044;4.582;2022-07-29T02:11:13;2.53;;;1.52;;
36257;SDS011;22294;52.044;4.582;2022-07-29T02:13:39;5.50;;;1.88;;
36257;SDS011;22294;52.044;4.582;2022-07-29T02:16:06;5.22;;;1.50;;
36257;SDS011;22294;52.044;4.582;2022-07-29T02:18:34;4.10;;;1.55;;
36257;SDS011;22294;52.044;4.582;2022-07-29T02:21:02;4.72;;;2.13;;
36257;SDS011;22294;52.044;4.582;2022-07-29T02:23:28;3.55;;;1.50;;
36257;SDS011;22294;52.044;4.582;2022-07-29T02:25:56;2.85;;;1.52;;
36257;SDS011;22294;52.044;4.582;2022-07-29T02:28:24;3.38;;;1.70;;
36257;SDS011;22294;52.044;4.582;2022-07-29T02:30:52;3.90;;;1.58;;
36257;SDS011;22294;52.044;4.582;2022-07-29T02:33:20;3.45;;;1.50;;
36257;SDS011;22294;52.044;4.582;2022-07-29T02:35:46;4.10;;;1.73;;
36257;SDS011;22294;52.044;4.582;2022-07-29T02:38:14;2.25;;;1.77;;
36257;SDS011;22294;52.044;4.582;2022-07-29T02:41:07;4.18;;;1.63;;
36257;SDS011;22294;52.044;4.582;2022-07-29T02:43:38;3.38;;;1.60;;
36257;SDS011;22294;52.044;4.582;2022-07-29T02:46:07;4.50;;;1.42;;
36257;SDS011;22294;52.044;4.582;2022-07-29T02:48:51;4.03;;;1.90;;
36257;SDS011;22294;52.044;4.582;2022-07-29T02:51:24;3.90;;;1.90;;
36257;SDS011;22294;52.044;4.582;2022-07-29T02:56:22;4.22;;;2.17;;
36257;SDS011;22294;52.044;4.582;2022-07-29T02:58:53;4.43;;;2.05;;
36257;SDS011;22294;52.044;4.582;2022-07-29T03:01:22;5.20;;;1.83;;
36257;SDS011;22294;52.044;4.582;2022-07-29T03:03:49;5.03;;;1.77;;
36257;SDS011;22294;52.044;4.582;2022-07-29T03:06:18;3.38;;;1.75;;
36257;SDS011;22294;52.044;4.582;2022-07-29T03:08:45;5.82;;;2.00;;
36257;SDS011;22294;52.044;4.582;2022-07-29T03:11:12;4.13;;;1.83;;
36257;SDS011;22294;52.044;4.582;2022-07-29T03:13:38;4.32;;;1.95;;
36257;SDS011;22294;52.044;4.582;2022-07-29T03:16:04;3.97;;;1.90;;
36257;SDS011;22294;52.044;4.582;2022-07-29T03:18:31;2.95;;;2.00;;
36257;SDS011;22294;52.044;4.582;2022-07-29T03:20:56;3.70;;;2.20;;
36257;SDS011;22294;52.044;4.582;2022-07-29T03:23:23;3.65;;;1.83;;
36257;SDS011;22294;52.044;4.582;2022-07-29T03:25:50;3.30;;;2.40;;
36257;SDS011;22294;52.044;4.582;2022-07-29T03:28:16;3.08;;;2.10;;
36257;SDS011;22294;52.044;4.582;2022-07-29T03:30:41;2.97;;;2.20;;
36257;SDS011;22294;52.044;4.582;2022-07-29T03:33:07;5.50;;;2.80;;
36257;SDS011;22294;52.044;4.582;2022-07-29T03:35:32;4.80;;;2.20;;
36257;SDS011;22294;52.044;4.582;2022-07-29T03:37:58;3.58;;;2.40;;
36257;SDS011;22294;52.044;4.582;2022-07-29T03:40:26;4.07;;;2.25;;
36257;SDS011;22294;52.044;4.582;2022-07-29T03:42:55;5.47;;;2.50;;
36257;SDS011;22294;52.044;4.582;2022-07-29T03:45:22;4.90;;;2.10;;
36257;SDS011;22294;52.044;4.582;2022-07-29T03:47:50;4.85;;;2.55;;
36257;SDS011;22294;52.044;4.582;2022-07-29T03:50:21;4.28;;;2.30;;
36257;SDS011;22294;52.044;4.582;2022-07-29T03:52:48;3.80;;;2.70;;
36257;SDS011;22294;52.044;4.582;2022-07-29T03:55:14;6.32;;;2.78;;
36257;SDS011;22294;52.044;4.582;2022-07-29T03:57:40;4.43;;;2.75;;
36257;SDS011;22294;52.044;4.582;2022-07-29T04:00:07;4.32;;;2.30;;
36257;SDS011;22294;52.044;4.582;2022-07-29T04:02:33;6.53;;;2.40;;
36257;SDS011;22294;52.044;4.582;2022-07-29T04:04:59;3.10;;;2.30;;
36257;SDS011;22294;52.044;4.582;2022-07-29T04:07:24;5.10;;;2.53;;
36257;SDS011;22294;52.044;4.582;2022-07-29T04:09:50;3.22;;;2.38;;
36257;SDS011;22294;52.044;4.582;2022-07-29T04:12:15;5.97;;;2.30;;
36257;SDS011;22294;52.044;4.582;2022-07-29T04:14:40;4.32;;;2.60;;
36257;SDS011;22294;52.044;4.582;2022-07-29T04:17:06;4.30;;;2.25;;
36257;SDS011;22294;52.044;4.582;2022-07-29T04:19:31;3.83;;;2.38;;
36257;SDS011;22294;52.044;4.582;2022-07-29T04:21:58;5.75;;;3.00;;
36257;SDS011;22294;52.044;4.582;2022-07-29T04:24:24;4.55;;;2.53;;
36257;SDS011;22294;52.044;4.582;2022-07-29T04:26:49;4.38;;;2.92;;
36257;SDS011;22294;52.044;4.582;2022-07-29T04:29:15;4.47;;;2.60;;
36257;SDS011;22294;52.044;4.582;2022-07-29T04:31:40;5.97;;;2.40;;
36257;SDS011;22294;52.044;4.582;2022-07-29T04:34:06;8.80;;;3.22;;
36257;SDS011;22294;52.044;4.582;2022-07-29T04:36:32;4.80;;;2.55;;
36257;SDS011;22294;52.044;4.582;2022-07-29T04:38:57;5.40;;;2.80;;
36257;SDS011;22294;52.044;4.582;2022-07-29T04:41:23;6.07;;;2.53;;
36257;SDS011;22294;52.044;4.582;2022-07-29T04:43:48;4.43;;;2.72;;
36257;SDS011;22294;52.044;4.582;2022-07-29T04:46:13;5.63;;;2.78;;
36257;SDS011;22294;52.044;4.582;2022-07-29T04:48:39;3.20;;;2.40;;
36257;SDS011;22294;52.044;4.582;2022-07-29T04:51:04;5.85;;;2.67;;
36257;SDS011;22294;52.044;4.582;2022-07-29T04:53:29;4.90;;;2.58;;
36257;SDS011;22294;52.044;4.582;2022-07-29T04:55:55;7.82;;;2.40;;
36257;SDS011;22294;52.044;4.582;2022-07-29T04:58:20;3.85;;;2.55;;
36257;SDS011;22294;52.044;4.582;2022-07-29T05:00:47;4.75;;;2.55;;
36257;SDS011;22294;52.044;4.582;2022-07-29T05:03:13;4.35;;;2.55;;
36257;SDS011;22294;52.044;4.582;2022-07-29T05:05:38;6.20;;;2.55;;
36257;SDS011;22294;52.044;4.582;2022-07-29T05:08:04;4.95;;;2.55;;
36257;SDS011;22294;52.044;4.582;2022-07-29T05:10:29;6.82;;;2.38;;
36257;SDS011;22294;52.044;4.582;2022-07-29T05:12:55;6.95;;;2.80;;
36257;SDS011;22294;52.044;4.582;2022-07-29T05:15:20;4.68;;;2.72;;
36257;SDS011;22294;52.044;4.582;2022-07-29T05:17:45;5.63;;;2.42;;
36257;SDS011;22294;52.044;4.582;2022-07-29T05:20:10;5.53;;;3.03;;
36257;SDS011;22294;52.044;4.582;2022-07-29T05:22:36;5.38;;;2.50;;
36257;SDS011;22294;52.044;4.582;2022-07-29T05:25:01;7.55;;;2.33;;
36257;SDS011;22294;52.044;4.582;2022-07-29T05:27:27;4.55;;;2.40;;
36257;SDS011;22294;52.044;4.582;2022-07-29T05:29:54;5.10;;;2.38;;
36257;SDS011;22294;52.044;4.582;2022-07-29T05:32:19;3.05;;;2.10;;
36257;SDS011;22294;52.044;4.582;2022-07-29T05:34:45;4.72;;;2.22;;
36257;SDS011;22294;52.044;4.582;2022-07-29T05:37:10;3.22;;;2.00;;
36257;SDS011;22294;52.044;4.582;2022-07-29T05:39:38;4.47;;;2.38;;
36257;SDS011;22294;52.044;4.582;2022-07-29T05:42:04;3.05;;;2.15;;
36257;SDS011;22294;52.044;4.582;2022-07-29T05:44:35;5.72;;;2.20;;
36257;SDS011;22294;52.044;4.582;2022-07-29T05:47:01;7.13;;;2.28;;
36257;SDS011;22294;52.044;4.582;2022-07-29T05:49:28;6.93;;;2.10;;
36257;SDS011;22294;52.044;4.582;2022-07-29T05:51:53;5.82;;;2.60;;
36257;SDS011;22294;52.044;4.582;2022-07-29T05:54:18;5.18;;;2.00;;
36257;SDS011;22294;52.044;4.582;2022-07-29T05:56:44;3.65;;;1.98;;
36257;SDS011;22294;52.044;4.582;2022-07-29T05:59:09;4.72;;;2.13;;
36257;SDS011;22294;52.044;4.582;2022-07-29T06:01:34;5.45;;;1.83;;
36257;SDS011;22294;52.044;4.582;2022-07-29T06:04:04;2.55;;;2.00;;
36257;SDS011;22294;52.044;4.582;2022-07-29T06:06:29;9.93;;;2.33;;
36257;SDS011;22294;52.044;4.582;2022-07-29T06:08:54;2.38;;;1.88;;
36257;SDS011;22294;52.044;4.582;2022-07-29T06:11:20;4.85;;;1.85;;
36257;SDS011;22294;52.044;4.582;2022-07-29T06:13:45;3.72;;;1.98;;
36257;SDS011;22294;52.044;4.582;2022-07-29T06:16:10;4.97;;;2.00;;
36257;SDS011;22294;52.044;4.582;2022-07-29T06:18:35;6.15;;;2.25;;
36257;SDS011;22294;52.044;4.582;2022-07-29T06:21:01;4.00;;;2.42;;
36257;SDS011;22294;52.044;4.582;2022-07-29T06:23:26;5.20;;;1.85;;
36257;SDS011;22294;52.044;4.582;2022-07-29T06:25:51;5.43;;;2.33;;
36257;SDS011;22294;52.044;4.582;2022-07-29T06:28:17;3.10;;;2.10;;
36257;SDS011;22294;52.044;4.582;2022-07-29T06:30:42;4.55;;;2.42;;
36257;SDS011;22294;52.044;4.582;2022-07-29T06:33:07;3.92;;;1.90;;
36257;SDS011;22294;52.044;4.582;2022-07-29T06:35:33;4.13;;;2.10;;
36257;SDS011;22294;52.044;4.582;2022-07-29T06:38:00;3.28;;;1.67;;
36257;SDS011;22294;52.044;4.582;2022-07-29T06:40:25;4.53;;;1.90;;
36257;SDS011;22294;52.044;4.582;2022-07-29T06:43:10;3.42;;;2.40;;
36257;SDS011;22294;52.044;4.582;2022-07-29T06:45:35;3.38;;;2.17;;
36257;SDS011;22294;52.044;4.582;2022-07-29T06:48:01;4.13;;;2.00;;
36257;SDS011;22294;52.044;4.582;2022-07-29T06:50:26;4.88;;;2.10;;
36257;SDS011;22294;52.044;4.582;2022-07-29T06:52:51;3.78;;;2.35;;
36257;SDS011;22294;52.044;4.582;2022-07-29T06:55:16;5.25;;;2.20;;
36257;SDS011;22294;52.044;4.582;2022-07-29T06:57:44;3.50;;;2.35;;
36257;SDS011;22294;52.044;4.582;2022-07-29T07:00:10;5.95;;;2.15;;
36257;SDS011;22294;52.044;4.582;2022-07-29T07:02:36;5.40;;;2.00;;
36257;SDS011;22294;52.044;4.582;2022-07-29T07:05:01;4.18;;;1.90;;
36257;SDS011;22294;52.044;4.582;2022-07-29T07:07:27;5.57;;;2.28;;
36257;SDS011;22294;52.044;4.582;2022-07-29T07:09:52;3.83;;;2.08;;
36257;SDS011;22294;52.044;4.582;2022-07-29T07:12:19;6.75;;;2.45;;
36257;SDS011;22294;52.044;4.582;2022-07-29T07:14:44;4.10;;;1.70;;
36257;SDS011;22294;52.044;4.582;2022-07-29T07:17:09;4.28;;;1.92;;
36257;SDS011;22294;52.044;4.582;2022-07-29T07:19:37;3.38;;;1.85;;
36257;SDS011;22294;52.044;4.582;2022-07-29T07:22:03;3.85;;;2.10;;
36257;SDS011;22294;52.044;4.582;2022-07-29T07:24:28;3.55;;;1.80;;
36257;SDS011;22294;52.044;4.582;2022-07-29T07:26:53;4.60;;;2.50;;
36257;SDS011;22294;52.044;4.582;2022-07-29T07:29:19;2.28;;;1.95;;
36257;SDS011;22294;52.044;4.582;2022-07-29T07:31:44;3.67;;;2.15;;
36257;SDS011;22294;52.044;4.582;2022-07-29T07:34:10;6.68;;;2.10;;
36257;SDS011;22294;52.044;4.582;2022-07-29T07:36:35;5.47;;;2.03;;
36257;SDS011;22294;52.044;4.582;2022-07-29T07:39:00;4.00;;;1.93;;
36257;SDS011;22294;52.044;4.582;2022-07-29T07:41:27;5.65;;;2.40;;
36257;SDS011;22294;52.044;4.582;2022-07-29T07:43:52;5.03;;;1.88;;
36257;SDS011;22294;52.044;4.582;2022-07-29T07:46:17;5.15;;;2.00;;
36257;SDS011;22294;52.044;4.582;2022-07-29T07:48:43;6.18;;;2.20;;
36257;SDS011;22294;52.044;4.582;2022-07-29T07:51:08;3.22;;;1.83;;
36257;SDS011;22294;52.044;4.582;2022-07-29T07:53:33;5.40;;;1.90;;
36257;SDS011;22294;52.044;4.582;2022-07-29T07:55:59;4.72;;;2.22;;
36257;SDS011;22294;52.044;4.582;2022-07-29T07:58:24;7.00;;;2.55;;
36257;SDS011;22294;52.044;4.582;2022-07-29T08:00:50;4.77;;;2.23;;
36257;SDS011;22294;52.044;4.582;2022-07-29T08:03:16;4.15;;;2.05;;
36257;SDS011;22294;52.044;4.582;2022-07-29T08:05:42;3.72;;;2.08;;
36257;SDS011;22294;52.044;4.582;2022-07-29T08:08:07;8.80;;;2.40;;
36257;SDS011;22294;52.044;4.582;2022-07-29T08:10:33;4.78;;;2.58;;
36257;SDS011;22294;52.044;4.582;2022-07-29T08:13:17;5.57;;;2.05;;
36257;SDS011;22294;52.044;4.582;2022-07-29T08:15:43;3.63;;;2.22;;
36257;SDS011;22294;52.044;4.582;2022-07-29T08:18:10;5.07;;;2.22;;
36257;SDS011;22294;52.044;4.582;2022-07-29T08:20:36;3.88;;;2.30;;
36257;SDS011;22294;52.044;4.582;2022-07-29T08:23:03;4.88;;;2.67;;
36257;SDS011;22294;52.044;4.582;2022-07-29T08:25:29;5.07;;;2.40;;
36257;SDS011;22294;52.044;4.582;2022-07-29T08:27:54;6.43;;;2.35;;
36257;SDS011;22294;52.044;4.582;2022-07-29T08:30:20;4.47;;;2.30;;
36257;SDS011;22294;52.044;4.582;2022-07-29T08:32:45;4.03;;;2.90;;
36257;SDS011;22294;52.044;4.582;2022-07-29T08:35:13;6.60;;;2.45;;
36257;SDS011;22294;52.044;4.582;2022-07-29T08:37:38;6.68;;;2.58;;
36257;SDS011;22294;52.044;4.582;2022-07-29T08:40:04;6.20;;;2.90;;
36257;SDS011;22294;52.044;4.582;2022-07-29T08:42:31;8.38;;;2.45;;
36257;SDS011;22294;52.044;4.582;2022-07-29T08:44:56;5.80;;;2.90;;
36257;SDS011;22294;52.044;4.582;2022-07-29T08:47:23;4.80;;;2.60;;
36257;SDS011;22294;52.044;4.582;2022-07-29T08:49:51;5.93;;;2.58;;
36257;SDS011;22294;52.044;4.582;2022-07-29T08:52:16;3.78;;;2.38;;
36257;SDS011;22294;52.044;4.582;2022-07-29T08:54:43;6.70;;;2.30;;
36257;SDS011;22294;52.044;4.582;2022-07-29T08:57:10;7.53;;;2.72;;
36257;SDS011;22294;52.044;4.582;2022-07-29T08:59:37;8.90;;;3.17;;
36257;SDS011;22294;52.044;4.582;2022-07-29T09:02:08;4.63;;;2.83;;
36257;SDS011;22294;52.044;4.582;2022-07-29T09:04:43;7.10;;;2.72;;
36257;SDS011;22294;52.044;4.582;2022-07-29T09:07:10;3.72;;;2.50;;
36257;SDS011;22294;52.044;4.582;2022-07-29T09:09:38;5.22;;;2.30;;
36257;SDS011;22294;52.044;4.582;2022-07-29T09:12:04;5.78;;;2.90;;
36257;SDS011;22294;52.044;4.582;2022-07-29T09:14:33;5.10;;;2.88;;
36257;SDS011;22294;52.044;4.582;2022-07-29T09:16:58;5.15;;;2.88;;
36257;SDS011;22294;52.044;4.582;2022-07-29T09:19:24;5.25;;;2.80;;
36257;SDS011;22294;52.044;4.582;2022-07-29T09:21:58;5.03;;;2.83;;
36257;SDS011;22294;52.044;4.582;2022-07-29T09:24:48;6.05;;;3.10;;
36257;SDS011;22294;52.044;4.582;2022-07-29T09:27:20;4.32;;;2.50;;
36257;SDS011;22294;52.044;4.582;2022-07-29T09:29:54;3.65;;;2.10;;
36257;SDS011;22294;52.044;4.582;2022-07-29T09:32:21;6.13;;;2.30;;
36257;SDS011;22294;52.044;4.582;2022-07-29T09:34:46;5.32;;;2.22;;
36257;SDS011;22294;52.044;4.582;2022-07-29T09:37:11;9.35;;;2.70;;
36257;SDS011;22294;52.044;4.582;2022-07-29T09:39:50;6.38;;;2.00;;
36257;SDS011;22294;52.044;4.582;2022-07-29T09:42:17;2.85;;;1.70;;
36257;SDS011;22294;52.044;4.582;2022-07-29T09:44:53;6.32;;;2.65;;
36257;SDS011;22294;52.044;4.582;2022-07-29T09:47:18;3.70;;;2.20;;
36257;SDS011;22294;52.044;4.582;2022-07-29T09:49:55;4.25;;;2.75;;
36257;SDS011;22294;52.044;4.582;2022-07-29T09:52:26;6.50;;;3.10;;
36257;SDS011;22294;52.044;4.582;2022-07-29T09:54:53;5.30;;;2.88;;
36257;SDS011;22294;52.044;4.582;2022-07-29T09:57:28;6.82;;;3.58;;
36257;SDS011;22294;52.044;4.582;2022-07-29T09:59:55;8.02;;;3.50;;
36257;SDS011;22294;52.044;4.582;2022-07-29T10:02:32;6.82;;;3.08;;
36257;SDS011;22294;52.044;4.582;2022-07-29T10:04:59;6.97;;;3.25;;
36257;SDS011;22294;52.044;4.582;2022-07-29T10:07:26;7.63;;;3.75;;
36257;SDS011;22294;52.044;4.582;2022-07-29T10:10:07;3.83;;;3.00;;
36257;SDS011;22294;52.044;4.582;2022-07-29T10:12:33;8.38;;;3.33;;
36257;SDS011;22294;52.044;4.582;2022-07-29T10:14:58;9.68;;;4.13;;
36257;SDS011;22294;52.044;4.582;2022-07-29T10:17:27;4.65;;;3.38;;
36257;SDS011;22294;52.044;4.582;2022-07-29T10:19:53;5.60;;;3.35;;
36257;SDS011;22294;52.044;4.582;2022-07-29T10:22:19;6.55;;;3.83;;
36257;SDS011;22294;52.044;4.582;2022-07-29T10:24:44;6.53;;;3.42;;
36257;SDS011;22294;52.044;4.582;2022-07-29T10:27:10;8.35;;;4.07;;
36257;SDS011;22294;52.044;4.582;2022-07-29T10:29:36;8.95;;;4.70;;
36257;SDS011;22294;52.044;4.582;2022-07-29T10:37:46;7.20;;;3.92;;
36257;SDS011;22294;52.044;4.582;2022-07-29T10:43:42;6.72;;;3.95;;
36257;SDS011;22294;52.044;4.582;2022-07-29T10:46:09;6.38;;;3.33;;
36257;SDS011;22294;52.044;4.582;2022-07-29T10:49:03;6.43;;;3.50;;
36257;SDS011;22294;52.044;4.582;2022-07-29T10:54:15;9.48;;;4.30;;
36257;SDS011;22294;52.044;4.582;2022-07-29T10:56:40;8.55;;;4.13;;
36257;SDS011;22294;52.044;4.582;2022-07-29T11:01:47;5.53;;;3.88;;
36257;SDS011;22294;52.044;4.582;2022-07-29T11:04:14;9.48;;;3.40;;
36257;SDS011;22294;52.044;4.582;2022-07-29T11:09:31;8.13;;;4.45;;
36257;SDS011;22294;52.044;4.582;2022-07-29T11:11:57;5.82;;;3.88;;
36257;SDS011;22294;52.044;4.582;2022-07-29T11:17:27;8.88;;;3.53;;
36257;SDS011;22294;52.044;4.582;2022-07-29T11:20:30;9.75;;;3.30;;
36257;SDS011;22294;52.044;4.582;2022-07-29T11:22:56;5.68;;;3.13;;
36257;SDS011;22294;52.044;4.582;2022-07-29T11:25:22;6.38;;;3.78;;
36257;SDS011;22294;52.044;4.582;2022-07-29T11:27:48;7.57;;;3.67;;
36257;SDS011;22294;52.044;4.582;2022-07-29T11:30:17;5.97;;;3.20;;
36257;SDS011;22294;52.044;4.582;2022-07-29T11:32:43;8.48;;;3.00;;
36257;SDS011;22294;52.044;4.582;2022-07-29T11:43:55;4.72;;;2.63;;
36257;SDS011;22294;52.044;4.582;2022-07-29T11:49:12;6.70;;;2.58;;
36257;SDS011;22294;52.044;4.582;2022-07-29T11:51:38;7.93;;;2.75;;
36257;SDS011;22294;52.044;4.582;2022-07-29T11:54:04;5.63;;;2.70;;
36257;SDS011;22294;52.044;4.582;2022-07-29T11:56:30;5.68;;;2.10;;
36257;SDS011;22294;52.044;4.582;2022-07-29T11:59:04;3.58;;;2.00;;
36257;SDS011;22294;52.044;4.582;2022-07-29T12:01:31;6.35;;;2.97;;
36257;SDS011;22294;52.044;4.582;2022-07-29T12:04:03;4.90;;;2.42;;
36257;SDS011;22294;52.044;4.582;2022-07-29T12:06:29;5.47;;;3.13;;
36257;SDS011;22294;52.044;4.582;2022-07-29T12:08:55;6.15;;;2.85;;
36257;SDS011;22294;52.044;4.582;2022-07-29T12:11:20;5.72;;;2.45;;
36257;SDS011;22294;52.044;4.582;2022-07-29T12:13:45;6.95;;;1.90;;
36257;SDS011;22294;52.044;4.582;2022-07-29T12:16:11;4.30;;;2.10;;
36257;SDS011;22294;52.044;4.582;2022-07-29T12:18:38;3.47;;;2.13;;
36257;SDS011;22294;52.044;4.582;2022-07-29T12:21:04;5.80;;;3.00;;
36257;SDS011;22294;52.044;4.582;2022-07-29T12:23:31;7.68;;;3.67;;
36257;SDS011;22294;52.044;4.582;2022-07-29T12:25:57;4.88;;;2.72;;
36257;SDS011;22294;52.044;4.582;2022-07-29T12:28:24;5.95;;;2.00;;
36257;SDS011;22294;52.044;4.582;2022-07-29T12:30:50;6.22;;;2.00;;
36257;SDS011;22294;52.044;4.582;2022-07-29T12:35:50;2.78;;;1.80;;
36257;SDS011;22294;52.044;4.582;2022-07-29T12:38:18;4.88;;;2.05;;
36257;SDS011;22294;52.044;4.582;2022-07-29T12:40:44;7.90;;;2.65;;
36257;SDS011;22294;52.044;4.582;2022-07-29T12:45:44;7.22;;;2.33;;
36257;SDS011;22294;52.044;4.582;2022-07-29T12:48:14;4.35;;;2.22;;
36257;SDS011;22294;52.044;4.582;2022-07-29T12:50:52;8.77;;;2.58;;
36257;SDS011;22294;52.044;4.582;2022-07-29T12:53:22;5.40;;;2.45;;
36257;SDS011;22294;52.044;4.582;2022-07-29T12:55:50;9.02;;;2.40;;
36257;SDS011;22294;52.044;4.582;2022-07-29T13:00:59;5.03;;;2.00;;
36257;SDS011;22294;52.044;4.582;2022-07-29T13:03:45;6.30;;;2.60;;
36257;SDS011;22294;52.044;4.582;2022-07-29T13:06:31;5.97;;;2.28;;
36257;SDS011;22294;52.044;4.582;2022-07-29T13:09:06;5.45;;;2.15;;
36257;SDS011;22294;52.044;4.582;2022-07-29T13:11:36;4.45;;;2.33;;
36257;SDS011;22294;52.044;4.582;2022-07-29T13:14:02;8.35;;;2.47;;
36257;SDS011;22294;52.044;4.582;2022-07-29T13:16:28;4.20;;;1.80;;
36257;SDS011;22294;52.044;4.582;2022-07-29T13:19:11;5.35;;;2.17;;
36257;SDS011;22294;52.044;4.582;2022-07-29T13:21:41;9.65;;;2.22;;
36257;SDS011;22294;52.044;4.582;2022-07-29T13:24:08;7.47;;;1.92;;
36257;SDS011;22294;52.044;4.582;2022-07-29T13:26:34;4.07;;;1.80;;
36257;SDS011;22294;52.044;4.582;2022-07-29T13:28:59;4.13;;;1.90;;
36257;SDS011;22294;52.044;4.582;2022-07-29T13:31:24;4.82;;;1.75;;
36257;SDS011;22294;52.044;4.582;2022-07-29T13:33:50;7.60;;;2.17;;
36257;SDS011;22294;52.044;4.582;2022-07-29T13:36:15;4.93;;;2.00;;
36257;SDS011;22294;52.044;4.582;2022-07-29T13:38:41;6.55;;;2.00;;
36257;SDS011;22294;52.044;4.582;2022-07-29T13:41:06;4.07;;;1.80;;
36257;SDS011;22294;52.044;4.582;2022-07-29T13:43:32;5.07;;;1.85;;
36257;SDS011;22294;52.044;4.582;2022-07-29T13:45:57;7.00;;;2.10;;
36257;SDS011;22294;52.044;4.582;2022-07-29T13:48:22;5.70;;;2.17;;
36257;SDS011;22294;52.044;4.582;2022-07-29T13:50:48;9.93;;;2.30;;
36257;SDS011;22294;52.044;4.582;2022-07-29T13:53:13;4.78;;;1.35;;
36257;SDS011;22294;52.044;4.582;2022-07-29T13:55:39;4.43;;;1.88;;
36257;SDS011;22294;52.044;4.582;2022-07-29T13:58:04;6.38;;;2.30;;
36257;SDS011;22294;52.044;4.582;2022-07-29T14:00:29;7.05;;;1.52;;
36257;SDS011;22294;52.044;4.582;2022-07-29T14:02:55;3.95;;;1.65;;
36257;SDS011;22294;52.044;4.582;2022-07-29T14:05:20;5.45;;;1.58;;
36257;SDS011;22294;52.044;4.582;2022-07-29T14:07:45;3.95;;;1.52;;
36257;SDS011;22294;52.044;4.582;2022-07-29T14:10:10;3.40;;;1.55;;
36257;SDS011;22294;52.044;4.582;2022-07-29T14:12:36;6.20;;;1.88;;
36257;SDS011;22294;52.044;4.582;2022-07-29T14:15:03;5.50;;;2.10;;
36257;SDS011;22294;52.044;4.582;2022-07-29T14:17:28;7.15;;;2.00;;
36257;SDS011;22294;52.044;4.582;2022-07-29T14:19:53;3.45;;;1.85;;
36257;SDS011;22294;52.044;4.582;2022-07-29T14:22:19;3.77;;;1.67;;
36257;SDS011;22294;52.044;4.582;2022-07-29T14:24:45;2.42;;;1.60;;
36257;SDS011;22294;52.044;4.582;2022-07-29T14:27:11;3.65;;;1.30;;
36257;SDS011;22294;52.044;4.582;2022-07-29T14:29:37;4.50;;;1.70;;
36257;SDS011;22294;52.044;4.582;2022-07-29T14:32:02;6.55;;;1.90;;
36257;SDS011;22294;52.044;4.582;2022-07-29T14:34:28;5.70;;;2.33;;
36257;SDS011;22294;52.044;4.582;2022-07-29T14:36:54;6.40;;;1.67;;
36257;SDS011;22294;52.044;4.582;2022-07-29T14:39:20;8.15;;;1.95;;
36257;SDS011;22294;52.044;4.582;2022-07-29T14:41:47;3.67;;;1.50;;
36257;SDS011;22294;52.044;4.582;2022-07-29T14:44:13;3.70;;;1.45;;
36257;SDS011;22294;52.044;4.582;2022-07-29T14:46:38;6.63;;;1.43;;
36257;SDS011;22294;52.044;4.582;2022-07-29T14:49:04;6.40;;;1.45;;
36257;SDS011;22294;52.044;4.582;2022-07-29T14:51:30;4.38;;;1.50;;
36257;SDS011;22294;52.044;4.582;2022-07-29T14:53:56;3.67;;;1.35;;
36257;SDS011;22294;52.044;4.582;2022-07-29T14:56:21;5.55;;;1.52;;
36257;SDS011;22294;52.044;4.582;2022-07-29T14:58:46;4.55;;;1.60;;
36257;SDS011;22294;52.044;4.582;2022-07-29T15:01:12;3.30;;;1.70;;
36257;SDS011;22294;52.044;4.582;2022-07-29T15:03:37;4.90;;;1.77;;
36257;SDS011;22294;52.044;4.582;2022-07-29T15:06:02;4.40;;;1.53;;
36257;SDS011;22294;52.044;4.582;2022-07-29T15:08:29;9.45;;;2.40;;
36257;SDS011;22294;52.044;4.582;2022-07-29T15:10:55;5.95;;;1.65;;
36257;SDS011;22294;52.044;4.582;2022-07-29T15:13:22;6.15;;;1.85;;
36257;SDS011;22294;52.044;4.582;2022-07-29T15:15:47;4.60;;;1.58;;
36257;SDS011;22294;52.044;4.582;2022-07-29T15:18:13;3.13;;;1.67;;
36257;SDS011;22294;52.044;4.582;2022-07-29T15:20:38;4.97;;;1.92;;
36257;SDS011;22294;52.044;4.582;2022-07-29T15:23:03;7.90;;;2.10;;
36257;SDS011;22294;52.044;4.582;2022-07-29T15:25:29;6.38;;;2.17;;
36257;SDS011;22294;52.044;4.582;2022-07-29T15:27:54;6.33;;;1.80;;
36257;SDS011;22294;52.044;4.582;2022-07-29T15:30:20;7.68;;;1.55;;
36257;SDS011;22294;52.044;4.582;2022-07-29T15:32:45;4.40;;;1.60;;
36257;SDS011;22294;52.044;4.582;2022-07-29T15:35:11;12.02;;;2.00;;
36257;SDS011;22294;52.044;4.582;2022-07-29T15:37:39;5.60;;;1.67;;
36257;SDS011;22294;52.044;4.582;2022-07-29T15:40:05;4.78;;;1.40;;
36257;SDS011;22294;52.044;4.582;2022-07-29T15:42:31;5.93;;;1.88;;